EW8702 Weather Reports


time (UTC)temp
F
wind
direction
speed
knots
gust
knots
rain 1hr
in
rain 24hr
in
rain mn
in
humidity
%
barometer
mb
20210920053124 42 284 0.0 0.9 0.00 0.00 0.00 66 1020.0
20210920052123 43 284 0.0 0.9 0.00 0.00 0.00 65 1020.1
20210920051123 44 321 0.0 3.5 0.00 0.00 0.00 64 1019.9
20210920050123 44 338 1.7 4.3 0.00 0.00 0.00 64 1019.9
20210920045123 43 330 1.7 5.2 0.00 0.00 0.00 65 1019.8
20210920044124 43 277 0.0 0.9 0.00 0.00 0.00 66 1019.7
20210920043123 43 286 0.9 2.6 0.00 0.00 0.00 64 1019.8
20210920042123 43 289 0.0 2.6 0.00 0.00 0.00 64 1019.7
20210920041123 43 279 0.9 3.5 0.00 0.00 0.00 64 1019.7
20210920040123 44 279 0.9 2.6 0.00 0.00 0.00 61 1019.6
20210920035124 44 291 0.0 2.6 0.00 0.00 0.00 61 1019.2
20210920034123 45 325 0.9 3.5 0.00 0.00 0.00 60 1019.0
20210920033123 45 283 0.9 5.2 0.00 0.00 0.00 60 1018.7
20210920032123 46 277 1.7 6.1 0.00 0.00 0.00 59 1018.5
20210920031123 47 281 1.7 6.1 0.00 0.00 0.00 57 1018.4
20210920030123 47 282 2.6 6.1 0.00 0.00 0.00 57 1018.3
20210920025123 48 321 0.9 3.5 0.00 0.00 0.00 57 1018.0
20210920024123 48 284 1.7 3.5 0.00 0.00 0.00 56 1017.7
20210920023123 49 277 1.7 5.2 0.00 0.00 0.00 55 1017.6
20210920022123 50 277 3.5 7.0 0.00 0.00 0.00 53 1017.3
20210920021123 51 277 2.6 6.1 0.00 0.00 0.00 49 1017.1
20210920020123 52 305 0.9 5.2 0.00 0.00 0.00 51 1016.9
20210920015124 53 330 3.5 9.6 0.00 0.00 0.00 44 1016.8
20210920014123 53 297 1.7 7.0 0.00 0.00 0.00 45 1016.7
20210920013123 53 293 0.9 5.2 0.00 0.00 0.00 46 1016.6
20210920012123 54 304 0.9 6.1 0.00 0.00 0.00 45 1016.3
20210920011123 53 276 5.2 8.7 0.00 0.00 0.00 48 1016.3
20210920010123 53 279 4.3 8.7 0.00 0.00 0.00 46 1016.3
20210920005123 54 280 5.2 12.2 0.00 0.00 0.00 42 1016.3
20210920004124 54 311 2.6 7.8 0.00 0.00 0.00 39 1016.0
20210920003123 54 280 2.6 7.8 0.00 0.00 0.00 44 1015.9
20210920002123 54 274 5.2 8.7 0.00 0.00 0.00 50 1016.1
20210920001123 54 269 3.5 7.8 0.00 0.00 0.00 50 1015.7
20210920000123 54 279 4.3 10.4 0.00 0.00 0.00 48 1015.4
20210919235123 54 287 3.5 10.4 0.00 0.00 0.00 50 1015.3
20210919234123 54 264 4.3 8.7 0.00 0.00 0.00 52 1015.4
20210919233123 54 257 2.6 5.2 0.00 0.00 0.00 51 1015.6
20210919232123 55 265 4.3 7.8 0.00 0.00 0.00 49 1015.5
20210919231122 55 280 3.5 10.4 0.00 0.00 0.00 48 1015.4
20210919230123 55 297 2.6 8.7 0.00 0.00 0.00 44 1015.6
20210919225124 54 301 1.7 7.0 0.00 0.00 0.00 47 1015.5
20210919224123 54 304 2.6 6.1 0.00 0.00 0.00 51 1015.5
20210919223123 54 327 5.2 13.9 0.00 0.00 0.00 51 1015.4
20210919222123 54 317 6.1 15.6 0.00 0.00 0.00 55 1015.4
20210919221123 54 329 11.3 22.6 0.00 0.00 0.00 55 1014.9
20210919220123 55 325 9.6 23.5 0.00 0.00 0.00 53 1014.7
20210919215123 56 321 7.0 23.5 0.00 0.02 0.00 49 1014.3
20210919214123 58 323 7.8 19.1 0.00 0.02 0.00 46 1013.7
20210919213123 58 311 6.1 17.4 0.00 0.02 0.00 45 1013.4
20210919212123 58 324 7.0 17.4 0.00 0.02 0.00 48 1013.5
20210919211123 59 302 5.2 19.1 0.00 0.02 0.00 46 1013.4
20210919210123 59 309 6.1 18.2 0.00 0.02 0.00 44 1012.9
20210919205123 60 316 5.2 18.2 0.00 0.02 0.00 43 1012.7
20210919204124 59 296 7.0 19.1 0.00 0.02 0.00 45 1012.7
20210919203123 60 284 7.0 17.4 0.00 0.02 0.00 46 1012.7
20210919202123 61 311 7.8 20.9 0.00 0.02 0.00 44 1012.5
20210919201123 62 327 12.2 26.1 0.00 0.02 0.00 41 1012.3
20210919200122 62 350 15.6 26.1 0.00 0.02 0.00 42 1011.9
20210919195123 61 330 11.3 23.5 0.00 0.02 0.00 49 1011.7
20210919194123 63 338 10.4 23.5 0.00 0.02 0.00 41 1011.5
20210919193123 66 294 4.3 13.9 0.00 0.02 0.00 39 1011.5
20210919192123 66 267 8.7 13.0 0.00 0.02 0.00 40 1010.9
20210919191123 67 284 6.1 14.8 0.00 0.02 0.00 39 1010.8
20210919190123 68 203 3.5 11.3 0.00 0.02 0.00 35 1010.8
20210919185123 68 294 2.6 9.6 0.00 0.02 0.00 39 1010.9
20210919184123 68 238 4.3 9.6 0.00 0.02 0.00 41 1010.9
20210919183123 68 253 3.5 10.4 0.00 0.02 0.00 41 1011.1
20210919182123 68 245 3.5 7.8 0.00 0.02 0.00 44 1011.2
20210919181123 68 267 7.0 13.0 0.00 0.02 0.00 48 1011.3
20210919180123 69 268 4.3 11.3 0.00 0.02 0.00 45 1011.0
20210919175123 67 267 3.5 8.7 0.00 0.02 0.00 49 1011.1
20210919174123 67 261 5.2 10.4 0.00 0.02 0.00 48 1011.2
20210919173123 69 262 5.2 12.2 0.00 0.02 0.00 46 1011.3
20210919172123 70 233 2.6 7.0 0.00 0.02 0.00 43 1011.2
20210919171123 69 250 3.5 5.2 0.00 0.02 0.00 45 1011.3
20210919170123 68 241 3.5 7.0 0.00 0.02 0.00 48 1011.6
20210919165123 68 251 5.2 8.7 0.00 0.02 0.00 47 1011.8
20210919164123 69 258 5.2 11.3 0.00 0.02 0.00 42 1011.7
20210919163123 70 247 4.3 9.6 0.00 0.02 0.00 43 1011.6
20210919162123 69 250 4.3 10.4 0.00 0.02 0.00 43 1011.5
20210919161123 70 218 2.6 7.0 0.00 0.02 0.00 38 1011.4
20210919160123 69 251 5.2 10.4 0.00 0.02 0.00 39 1011.4
20210919155122 69 235 3.5 6.1 0.00 0.02 0.00 40 1011.3
20210919154123 69 206 3.5 7.8 0.00 0.02 0.00 37 1011.3
20210919153123 69 196 4.3 13.0 0.00 0.02 0.00 36 1011.3
20210919152123 68 198 3.5 7.8 0.00 0.02 0.00 38 1011.2
20210919151123 68 187 4.3 10.4 0.00 0.02 0.00 38 1011.3
20210919150123 67 169 2.6 7.0 0.00 0.02 0.00 39 1011.2
20210919145123 65 124 0.9 4.3 0.00 0.07 0.00 45 1011.4
20210919144123 64 97 0.9 1.7 0.00 0.07 0.00 52 1011.5
20210919143124 63 137 0.9 3.5 0.00 0.07 0.00 48 1011.5
20210919142122 63 103 0.9 3.5 0.00 0.07 0.00 48 1011.8
20210919141123 63 159 0.9 3.5 0.00 0.07 0.00 47 1011.8
20210919140123 63 120 1.7 2.6 0.00 0.07 0.00 45 1011.9
20210919135123 65 119 2.6 6.1 0.00 0.07 0.00 42 1011.6
20210919134123 65 136 2.6 9.6 0.00 0.07 0.00 39 1011.7
20210919133123 65 187 2.6 7.0 0.00 0.07 0.00 40 1011.9
20210919132123 64 192 3.5 7.8 0.00 0.07 0.00 41 1011.8
20210919131123 64 167 2.6 7.8 0.00 0.07 0.00 42 1011.8
20210919130123 64 58 1.7 5.2 0.00 0.07 0.00 42 1011.5
20210919125123 64 102 3.5 9.6 0.00 0.07 0.00 43 1011.6
20210919124123 64 202 1.7 4.3 0.00 0.07 0.00 43 1011.6
20210919123123 66 171 2.6 9.6 0.00 0.07 0.00 39 1011.6
20210919122123 65 178 2.6 10.4 0.00 0.07 0.00 40 1011.6
20210919121123 67 185 5.2 12.2 0.00 0.07 0.00 37 1011.7
20210919120123 66 200 5.2 18.2 0.00 0.07 0.00 39 1011.8
20210919115122 65 195 2.6 7.8 0.00 0.07 0.00 46 1011.8
20210919114123 63 129 1.7 7.0 0.00 0.07 0.00 46 1011.6
20210919113123 63 156 1.7 4.3 0.00 0.07 0.00 47 1011.7
20210919112124 63 147 1.7 4.3 0.00 0.07 0.00 46 1011.8
20210919111123 63 121 2.6 9.6 0.00 0.07 0.00 46 1011.6
20210919110123 62 171 1.7 7.0 0.00 0.07 0.00 48 1011.6
20210919105123 62 170 1.7 5.2 0.00 0.07 0.00 50 1011.8
20210919104123 62 168 0.9 3.5 0.00 0.07 0.00 50 1011.8
20210919103123 63 98 1.7 6.1 0.00 0.07 0.00 48 1011.8
20210919102123 62 132 1.7 3.5 0.00 0.07 0.00 50 1012.0
20210919101123 62 152 1.7 5.2 0.00 0.07 0.00 50 1012.0
20210919100123 62 174 0.9 3.5 0.00 0.07 0.00 52 1012.1
20210919095122 61 110 0.9 3.5 0.00 0.07 0.00 54 1012.1
20210919094123 61 112 0.9 4.3 0.00 0.07 0.00 54 1012.1
20210919093123 61 116 1.7 6.1 0.00 0.07 0.00 54 1012.1
20210919092123 62 107 0.9 3.5 0.00 0.07 0.00 53 1012.4
20210919091123 62 137 1.7 6.1 0.00 0.07 0.00 53 1012.4
20210919090123 60 106 0.9 6.1 0.00 0.07 0.00 56 1012.5
20210919085124 60 86 1.7 3.5 0.00 0.07 0.00 57 1012.5
20210919084123 59 113 1.7 3.5 0.00 0.07 0.00 58 1012.6
20210919083123 58 102 0.9 2.6 0.00 0.07 0.00 61 1012.7
20210919082123 56 174 0.9 1.7 0.00 0.07 0.00 64 1012.9
20210919081123 56 179 0.9 3.5 0.00 0.07 0.00 64 1012.9
20210919080122 55 226 0.9 3.5 0.00 0.07 0.00 67 1012.9
20210919075123 55 136 0.9 2.6 0.00 0.07 0.00 66 1012.7
20210919074123 55 195 0.9 4.3 0.00 0.07 0.00 69 1012.8
20210919073124 55 9 0.9 2.6 0.00 0.07 0.00 68 1012.7
20210919072123 54 315 0.9 2.6 0.00 0.07 0.00 70 1012.9
20210919071123 56 76 0.9 2.6 0.00 0.07 0.00 66 1013.0
20210919070124 54 312 0.9 2.6 0.00 0.07 0.00 69 1013.0
20210919065123 54 321 0.9 2.6 0.00 0.07 0.00 69 1013.0
20210919064123 54 331 0.9 3.5 0.00 0.07 0.00 70 1013.0
20210919063123 55 198 0.0 1.7 0.00 0.07 0.00 69 1013.3
20210919062123 56 327 1.7 3.5 0.00 0.07 0.00 67 1013.2
20210919061123 56 348 0.9 2.6 0.00 0.07 0.00 66 1013.2
20210919060123 56 304 0.9 2.6 0.00 0.07 0.00 66 1013.0
20210919055123 57 54 0.0 1.7 0.00 0.07 0.07 65 1013.2
20210919054123 58 53 0.0 1.7 0.00 0.07 0.07 61 1013.3